sensor_id;sensor_type;location;lat;lon;timestamp;P1;durP1;ratioP1;P2;durP2;ratioP2
2257;SDS011;1136;51.574;7.706;2023-04-29T00:01:04;33.20;;;23.40;;
2257;SDS011;1136;51.574;7.706;2023-04-29T00:03:31;30.70;;;24.27;;
2257;SDS011;1136;51.574;7.706;2023-04-29T00:05:58;30.73;;;23.90;;
2257;SDS011;1136;51.574;7.706;2023-04-29T00:08:26;29.30;;;26.10;;
2257;SDS011;1136;51.574;7.706;2023-04-29T00:10:53;26.77;;;23.80;;
2257;SDS011;1136;51.574;7.706;2023-04-29T00:13:19;30.13;;;25.53;;
2257;SDS011;1136;51.574;7.706;2023-04-29T00:15:46;33.20;;;21.77;;
2257;SDS011;1136;51.574;7.706;2023-04-29T00:18:13;29.83;;;22.30;;
2257;SDS011;1136;51.574;7.706;2023-04-29T00:20:39;26.83;;;20.90;;
2257;SDS011;1136;51.574;7.706;2023-04-29T00:23:07;25.83;;;20.03;;
2257;SDS011;1136;51.574;7.706;2023-04-29T00:25:34;24.53;;;20.20;;
2257;SDS011;1136;51.574;7.706;2023-04-29T00:28:01;28.73;;;20.77;;
2257;SDS011;1136;51.574;7.706;2023-04-29T00:30:28;27.13;;;21.40;;
2257;SDS011;1136;51.574;7.706;2023-04-29T00:32:55;26.57;;;21.90;;
2257;SDS011;1136;51.574;7.706;2023-04-29T00:35:22;27.73;;;21.67;;
2257;SDS011;1136;51.574;7.706;2023-04-29T00:37:48;29.57;;;22.37;;
2257;SDS011;1136;51.574;7.706;2023-04-29T00:40:15;28.17;;;21.77;;
2257;SDS011;1136;51.574;7.706;2023-04-29T00:42:42;25.90;;;22.27;;
2257;SDS011;1136;51.574;7.706;2023-04-29T00:45:09;29.90;;;22.97;;
2257;SDS011;1136;51.574;7.706;2023-04-29T00:47:37;32.70;;;25.07;;
2257;SDS011;1136;51.574;7.706;2023-04-29T00:50:04;32.80;;;24.57;;
2257;SDS011;1136;51.574;7.706;2023-04-29T00:52:33;38.50;;;28.10;;
2257;SDS011;1136;51.574;7.706;2023-04-29T00:55:00;42.20;;;29.00;;
2257;SDS011;1136;51.574;7.706;2023-04-29T00:57:26;41.57;;;30.33;;
2257;SDS011;1136;51.574;7.706;2023-04-29T00:59:56;43.63;;;29.10;;
2257;SDS011;1136;51.574;7.706;2023-04-29T01:02:24;37.20;;;27.47;;
2257;SDS011;1136;51.574;7.706;2023-04-29T01:04:52;44.87;;;30.20;;
2257;SDS011;1136;51.574;7.706;2023-04-29T01:17:55;48.77;;;34.10;;
2257;SDS011;1136;51.574;7.706;2023-04-29T01:20:26;45.30;;;33.03;;
2257;SDS011;1136;51.574;7.706;2023-04-29T01:22:53;47.90;;;32.80;;
2257;SDS011;1136;51.574;7.706;2023-04-29T01:25:19;46.40;;;29.90;;
2257;SDS011;1136;51.574;7.706;2023-04-29T01:28:04;42.87;;;28.20;;
2257;SDS011;1136;51.574;7.706;2023-04-29T01:38:52;56.50;;;30.67;;
2257;SDS011;1136;51.574;7.706;2023-04-29T01:41:26;59.03;;;33.50;;
2257;SDS011;1136;51.574;7.706;2023-04-29T01:43:58;61.70;;;34.90;;
2257;SDS011;1136;51.574;7.706;2023-04-29T01:46:27;59.37;;;33.57;;
2257;SDS011;1136;51.574;7.706;2023-04-29T01:48:54;55.17;;;33.70;;
2257;SDS011;1136;51.574;7.706;2023-04-29T01:51:20;65.27;;;35.33;;
2257;SDS011;1136;51.574;7.706;2023-04-29T01:53:47;67.27;;;36.93;;
2257;SDS011;1136;51.574;7.706;2023-04-29T01:56:14;63.93;;;36.00;;
2257;SDS011;1136;51.574;7.706;2023-04-29T01:58:41;64.23;;;36.47;;
2257;SDS011;1136;51.574;7.706;2023-04-29T02:01:08;64.97;;;35.87;;
2257;SDS011;1136;51.574;7.706;2023-04-29T02:03:36;75.13;;;38.17;;
2257;SDS011;1136;51.574;7.706;2023-04-29T02:06:02;67.70;;;36.00;;
2257;SDS011;1136;51.574;7.706;2023-04-29T02:08:29;66.40;;;37.47;;
2257;SDS011;1136;51.574;7.706;2023-04-29T02:10:57;65.77;;;35.50;;
2257;SDS011;1136;51.574;7.706;2023-04-29T02:13:25;64.30;;;35.30;;
2257;SDS011;1136;51.574;7.706;2023-04-29T02:15:52;66.10;;;37.33;;
2257;SDS011;1136;51.574;7.706;2023-04-29T02:18:18;65.77;;;34.97;;
2257;SDS011;1136;51.574;7.706;2023-04-29T02:20:45;66.23;;;37.30;;
2257;SDS011;1136;51.574;7.706;2023-04-29T02:23:12;73.30;;;41.80;;
2257;SDS011;1136;51.574;7.706;2023-04-29T02:25:38;90.20;;;42.50;;
2257;SDS011;1136;51.574;7.706;2023-04-29T02:28:05;87.23;;;46.23;;
2257;SDS011;1136;51.574;7.706;2023-04-29T02:30:32;91.27;;;45.60;;
2257;SDS011;1136;51.574;7.706;2023-04-29T02:32:59;80.70;;;42.57;;
2257;SDS011;1136;51.574;7.706;2023-04-29T02:35:26;78.37;;;42.60;;
2257;SDS011;1136;51.574;7.706;2023-04-29T02:37:53;83.13;;;42.40;;
2257;SDS011;1136;51.574;7.706;2023-04-29T02:40:19;76.03;;;41.50;;
2257;SDS011;1136;51.574;7.706;2023-04-29T02:42:47;69.40;;;38.47;;
2257;SDS011;1136;51.574;7.706;2023-04-29T02:45:13;76.33;;;39.50;;
2257;SDS011;1136;51.574;7.706;2023-04-29T02:47:40;69.27;;;39.07;;
2257;SDS011;1136;51.574;7.706;2023-04-29T02:50:07;69.27;;;38.67;;
2257;SDS011;1136;51.574;7.706;2023-04-29T02:52:34;75.07;;;39.57;;
2257;SDS011;1136;51.574;7.706;2023-04-29T02:55:01;62.97;;;39.17;;
2257;SDS011;1136;51.574;7.706;2023-04-29T02:57:28;65.80;;;38.73;;
2257;SDS011;1136;51.574;7.706;2023-04-29T02:59:55;66.10;;;39.13;;
2257;SDS011;1136;51.574;7.706;2023-04-29T03:02:23;61.00;;;36.60;;
2257;SDS011;1136;51.574;7.706;2023-04-29T03:04:50;58.43;;;34.73;;
2257;SDS011;1136;51.574;7.706;2023-04-29T03:07:16;61.70;;;35.90;;
2257;SDS011;1136;51.574;7.706;2023-04-29T03:09:43;62.50;;;35.40;;
2257;SDS011;1136;51.574;7.706;2023-04-29T03:12:10;57.33;;;33.90;;
2257;SDS011;1136;51.574;7.706;2023-04-29T03:14:37;53.00;;;31.40;;
2257;SDS011;1136;51.574;7.706;2023-04-29T03:17:04;60.20;;;34.40;;
2257;SDS011;1136;51.574;7.706;2023-04-29T03:19:30;52.60;;;30.20;;
2257;SDS011;1136;51.574;7.706;2023-04-29T03:21:57;48.67;;;30.80;;
2257;SDS011;1136;51.574;7.706;2023-04-29T03:24:24;50.83;;;32.40;;
2257;SDS011;1136;51.574;7.706;2023-04-29T03:26:50;48.07;;;29.07;;
2257;SDS011;1136;51.574;7.706;2023-04-29T03:29:17;48.67;;;30.30;;
2257;SDS011;1136;51.574;7.706;2023-04-29T03:31:44;48.00;;;29.10;;
2257;SDS011;1136;51.574;7.706;2023-04-29T03:34:11;50.10;;;28.63;;
2257;SDS011;1136;51.574;7.706;2023-04-29T03:36:39;46.70;;;31.40;;
2257;SDS011;1136;51.574;7.706;2023-04-29T03:39:06;48.40;;;31.77;;
2257;SDS011;1136;51.574;7.706;2023-04-29T03:41:33;48.70;;;29.77;;
2257;SDS011;1136;51.574;7.706;2023-04-29T03:43:59;49.73;;;30.13;;
2257;SDS011;1136;51.574;7.706;2023-04-29T03:46:26;52.23;;;32.33;;
2257;SDS011;1136;51.574;7.706;2023-04-29T03:48:53;49.07;;;30.13;;
2257;SDS011;1136;51.574;7.706;2023-04-29T03:51:23;43.00;;;28.00;;
2257;SDS011;1136;51.574;7.706;2023-04-29T03:53:50;41.87;;;27.60;;
2257;SDS011;1136;51.574;7.706;2023-04-29T03:56:18;47.23;;;30.50;;
2257;SDS011;1136;51.574;7.706;2023-04-29T03:58:45;44.30;;;29.03;;
2257;SDS011;1136;51.574;7.706;2023-04-29T04:01:11;42.40;;;28.60;;
2257;SDS011;1136;51.574;7.706;2023-04-29T04:03:38;42.87;;;28.40;;
2257;SDS011;1136;51.574;7.706;2023-04-29T04:06:05;39.00;;;27.90;;
2257;SDS011;1136;51.574;7.706;2023-04-29T04:08:31;43.73;;;28.63;;
2257;SDS011;1136;51.574;7.706;2023-04-29T04:10:58;50.00;;;29.50;;
2257;SDS011;1136;51.574;7.706;2023-04-29T04:13:28;37.37;;;27.10;;
2257;SDS011;1136;51.574;7.706;2023-04-29T04:15:55;41.93;;;30.30;;
2257;SDS011;1136;51.574;7.706;2023-04-29T04:18:22;47.30;;;31.10;;
2257;SDS011;1136;51.574;7.706;2023-04-29T04:20:49;43.50;;;30.70;;
2257;SDS011;1136;51.574;7.706;2023-04-29T04:23:16;46.60;;;29.40;;
2257;SDS011;1136;51.574;7.706;2023-04-29T04:25:46;48.80;;;30.33;;
2257;SDS011;1136;51.574;7.706;2023-04-29T04:28:13;46.27;;;30.53;;
2257;SDS011;1136;51.574;7.706;2023-04-29T04:30:41;41.03;;;30.70;;
2257;SDS011;1136;51.574;7.706;2023-04-29T04:33:08;43.60;;;30.53;;
2257;SDS011;1136;51.574;7.706;2023-04-29T04:35:35;54.60;;;30.20;;
2257;SDS011;1136;51.574;7.706;2023-04-29T04:38:02;46.90;;;32.10;;
2257;SDS011;1136;51.574;7.706;2023-04-29T04:40:29;54.37;;;32.83;;
2257;SDS011;1136;51.574;7.706;2023-04-29T04:42:56;53.73;;;31.70;;
2257;SDS011;1136;51.574;7.706;2023-04-29T04:45:22;55.00;;;33.10;;
2257;SDS011;1136;51.574;7.706;2023-04-29T04:47:49;41.53;;;29.47;;
2257;SDS011;1136;51.574;7.706;2023-04-29T04:50:16;46.80;;;32.00;;
2257;SDS011;1136;51.574;7.706;2023-04-29T04:52:42;48.70;;;29.93;;
2257;SDS011;1136;51.574;7.706;2023-04-29T04:55:09;50.37;;;31.90;;
2257;SDS011;1136;51.574;7.706;2023-04-29T04:57:39;46.00;;;30.67;;
2257;SDS011;1136;51.574;7.706;2023-04-29T05:00:05;50.10;;;31.87;;
2257;SDS011;1136;51.574;7.706;2023-04-29T05:02:32;47.87;;;30.57;;
2257;SDS011;1136;51.574;7.706;2023-04-29T05:04:59;44.00;;;31.77;;
2257;SDS011;1136;51.574;7.706;2023-04-29T05:07:26;48.73;;;30.50;;
2257;SDS011;1136;51.574;7.706;2023-04-29T05:09:53;44.83;;;29.53;;
2257;SDS011;1136;51.574;7.706;2023-04-29T05:12:20;49.50;;;31.57;;
2257;SDS011;1136;51.574;7.706;2023-04-29T05:14:46;44.73;;;29.67;;
2257;SDS011;1136;51.574;7.706;2023-04-29T05:17:13;47.00;;;30.00;;
2257;SDS011;1136;51.574;7.706;2023-04-29T05:19:39;43.40;;;31.60;;
2257;SDS011;1136;51.574;7.706;2023-04-29T05:22:06;44.50;;;29.70;;
2257;SDS011;1136;51.574;7.706;2023-04-29T05:24:33;44.33;;;31.97;;
2257;SDS011;1136;51.574;7.706;2023-04-29T05:26:59;41.50;;;30.60;;
2257;SDS011;1136;51.574;7.706;2023-04-29T05:29:26;43.47;;;31.80;;
2257;SDS011;1136;51.574;7.706;2023-04-29T05:31:53;45.90;;;30.40;;
2257;SDS011;1136;51.574;7.706;2023-04-29T05:34:19;38.87;;;28.37;;
2257;SDS011;1136;51.574;7.706;2023-04-29T05:36:46;40.30;;;29.63;;
2257;SDS011;1136;51.574;7.706;2023-04-29T05:39:13;42.53;;;30.30;;
2257;SDS011;1136;51.574;7.706;2023-04-29T05:41:40;39.83;;;29.77;;
2257;SDS011;1136;51.574;7.706;2023-04-29T05:44:06;39.00;;;28.40;;
2257;SDS011;1136;51.574;7.706;2023-04-29T05:46:33;43.13;;;29.30;;
2257;SDS011;1136;51.574;7.706;2023-04-29T05:49:00;43.90;;;30.50;;
2257;SDS011;1136;51.574;7.706;2023-04-29T05:51:27;38.60;;;30.50;;
2257;SDS011;1136;51.574;7.706;2023-04-29T05:53:53;36.97;;;28.10;;
2257;SDS011;1136;51.574;7.706;2023-04-29T05:56:20;36.03;;;27.83;;
2257;SDS011;1136;51.574;7.706;2023-04-29T05:58:47;35.73;;;29.10;;
2257;SDS011;1136;51.574;7.706;2023-04-29T06:01:14;36.23;;;28.20;;
2257;SDS011;1136;51.574;7.706;2023-04-29T06:03:42;38.17;;;29.50;;
2257;SDS011;1136;51.574;7.706;2023-04-29T06:06:09;34.73;;;28.00;;
2257;SDS011;1136;51.574;7.706;2023-04-29T06:08:36;37.10;;;30.07;;
2257;SDS011;1136;51.574;7.706;2023-04-29T06:11:03;32.87;;;26.97;;
2257;SDS011;1136;51.574;7.706;2023-04-29T06:13:31;34.37;;;27.07;;
2257;SDS011;1136;51.574;7.706;2023-04-29T06:15:57;36.23;;;28.43;;
2257;SDS011;1136;51.574;7.706;2023-04-29T06:18:24;31.43;;;27.50;;
2257;SDS011;1136;51.574;7.706;2023-04-29T06:20:50;38.43;;;29.23;;
2257;SDS011;1136;51.574;7.706;2023-04-29T06:23:17;34.47;;;28.40;;
2257;SDS011;1136;51.574;7.706;2023-04-29T06:25:44;36.70;;;29.00;;
2257;SDS011;1136;51.574;7.706;2023-04-29T06:28:10;39.07;;;29.17;;
2257;SDS011;1136;51.574;7.706;2023-04-29T06:30:37;38.17;;;28.27;;
2257;SDS011;1136;51.574;7.706;2023-04-29T06:33:04;36.53;;;26.90;;
2257;SDS011;1136;51.574;7.706;2023-04-29T06:35:31;41.30;;;29.30;;
2257;SDS011;1136;51.574;7.706;2023-04-29T06:37:57;37.30;;;29.50;;
2257;SDS011;1136;51.574;7.706;2023-04-29T06:40:24;36.10;;;27.67;;
2257;SDS011;1136;51.574;7.706;2023-04-29T06:42:51;43.90;;;30.83;;
2257;SDS011;1136;51.574;7.706;2023-04-29T06:45:17;40.73;;;29.73;;
2257;SDS011;1136;51.574;7.706;2023-04-29T06:47:44;39.40;;;30.60;;
2257;SDS011;1136;51.574;7.706;2023-04-29T06:50:12;38.53;;;28.93;;
2257;SDS011;1136;51.574;7.706;2023-04-29T06:52:38;38.67;;;29.90;;
2257;SDS011;1136;51.574;7.706;2023-04-29T06:55:05;38.10;;;28.40;;
2257;SDS011;1136;51.574;7.706;2023-04-29T06:57:32;40.93;;;31.40;;
2257;SDS011;1136;51.574;7.706;2023-04-29T06:59:59;45.43;;;31.07;;
2257;SDS011;1136;51.574;7.706;2023-04-29T07:02:26;44.80;;;31.07;;
2257;SDS011;1136;51.574;7.706;2023-04-29T07:04:52;44.10;;;31.40;;
2257;SDS011;1136;51.574;7.706;2023-04-29T07:07:19;41.00;;;30.03;;
2257;SDS011;1136;51.574;7.706;2023-04-29T07:09:46;40.53;;;30.20;;
2257;SDS011;1136;51.574;7.706;2023-04-29T07:12:13;45.20;;;31.03;;
2257;SDS011;1136;51.574;7.706;2023-04-29T07:14:40;39.43;;;31.30;;
2257;SDS011;1136;51.574;7.706;2023-04-29T07:17:07;42.67;;;31.63;;
2257;SDS011;1136;51.574;7.706;2023-04-29T07:19:33;39.93;;;30.00;;
2257;SDS011;1136;51.574;7.706;2023-04-29T07:22:01;42.53;;;30.10;;
2257;SDS011;1136;51.574;7.706;2023-04-29T07:24:28;41.03;;;32.83;;
2257;SDS011;1136;51.574;7.706;2023-04-29T07:26:54;38.20;;;30.43;;
2257;SDS011;1136;51.574;7.706;2023-04-29T07:29:21;36.57;;;29.10;;
2257;SDS011;1136;51.574;7.706;2023-04-29T07:31:48;43.13;;;28.50;;
2257;SDS011;1136;51.574;7.706;2023-04-29T07:34:14;38.17;;;29.23;;
2257;SDS011;1136;51.574;7.706;2023-04-29T07:36:41;41.70;;;30.10;;
2257;SDS011;1136;51.574;7.706;2023-04-29T07:39:08;39.03;;;27.77;;
2257;SDS011;1136;51.574;7.706;2023-04-29T07:41:34;37.43;;;27.10;;
2257;SDS011;1136;51.574;7.706;2023-04-29T07:44:02;38.00;;;28.77;;
2257;SDS011;1136;51.574;7.706;2023-04-29T07:46:29;33.10;;;26.57;;
2257;SDS011;1136;51.574;7.706;2023-04-29T07:48:56;34.93;;;28.20;;
2257;SDS011;1136;51.574;7.706;2023-04-29T07:51:23;34.50;;;26.90;;
2257;SDS011;1136;51.574;7.706;2023-04-29T07:53:50;32.93;;;24.90;;
2257;SDS011;1136;51.574;7.706;2023-04-29T07:56:17;35.37;;;27.70;;
2257;SDS011;1136;51.574;7.706;2023-04-29T07:58:46;38.13;;;27.57;;
2257;SDS011;1136;51.574;7.706;2023-04-29T08:01:13;39.83;;;27.50;;
2257;SDS011;1136;51.574;7.706;2023-04-29T08:03:41;49.20;;;29.47;;
2257;SDS011;1136;51.574;7.706;2023-04-29T08:06:08;37.83;;;27.67;;
2257;SDS011;1136;51.574;7.706;2023-04-29T08:08:35;42.50;;;32.03;;
2257;SDS011;1136;51.574;7.706;2023-04-29T08:11:02;44.80;;;29.83;;
2257;SDS011;1136;51.574;7.706;2023-04-29T08:13:30;43.80;;;31.50;;
2257;SDS011;1136;51.574;7.706;2023-04-29T08:15:56;41.30;;;29.60;;
2257;SDS011;1136;51.574;7.706;2023-04-29T08:18:23;47.40;;;33.07;;
2257;SDS011;1136;51.574;7.706;2023-04-29T08:20:50;41.60;;;33.10;;
2257;SDS011;1136;51.574;7.706;2023-04-29T08:23:17;49.47;;;34.10;;
2257;SDS011;1136;51.574;7.706;2023-04-29T08:25:43;55.87;;;35.10;;
2257;SDS011;1136;51.574;7.706;2023-04-29T08:28:11;48.73;;;35.80;;
2257;SDS011;1136;51.574;7.706;2023-04-29T08:30:39;49.37;;;35.50;;
2257;SDS011;1136;51.574;7.706;2023-04-29T08:33:06;60.00;;;37.87;;
2257;SDS011;1136;51.574;7.706;2023-04-29T08:35:34;58.83;;;36.47;;
2257;SDS011;1136;51.574;7.706;2023-04-29T08:38:04;49.90;;;35.67;;
2257;SDS011;1136;51.574;7.706;2023-04-29T08:40:35;55.73;;;36.53;;
2257;SDS011;1136;51.574;7.706;2023-04-29T08:43:06;61.40;;;38.67;;
2257;SDS011;1136;51.574;7.706;2023-04-29T08:45:35;54.27;;;36.90;;
2257;SDS011;1136;51.574;7.706;2023-04-29T08:48:02;53.97;;;36.33;;
2257;SDS011;1136;51.574;7.706;2023-04-29T08:50:29;52.27;;;38.20;;
2257;SDS011;1136;51.574;7.706;2023-04-29T08:52:57;53.00;;;39.83;;
2257;SDS011;1136;51.574;7.706;2023-04-29T08:55:24;56.80;;;39.33;;
2257;SDS011;1136;51.574;7.706;2023-04-29T08:57:51;52.40;;;38.10;;
2257;SDS011;1136;51.574;7.706;2023-04-29T09:00:20;49.37;;;37.47;;
2257;SDS011;1136;51.574;7.706;2023-04-29T09:02:51;58.87;;;38.23;;
2257;SDS011;1136;51.574;7.706;2023-04-29T09:05:19;50.93;;;36.63;;
2257;SDS011;1136;51.574;7.706;2023-04-29T09:07:47;54.43;;;39.80;;
2257;SDS011;1136;51.574;7.706;2023-04-29T09:10:14;52.37;;;38.20;;
2257;SDS011;1136;51.574;7.706;2023-04-29T09:12:41;52.53;;;37.13;;
2257;SDS011;1136;51.574;7.706;2023-04-29T09:15:08;50.47;;;37.83;;
2257;SDS011;1136;51.574;7.706;2023-04-29T09:25:16;52.50;;;37.07;;
2257;SDS011;1136;51.574;7.706;2023-04-29T09:27:43;46.23;;;37.93;;
2257;SDS011;1136;51.574;7.706;2023-04-29T09:30:11;54.03;;;36.77;;
2257;SDS011;1136;51.574;7.706;2023-04-29T09:32:39;43.40;;;34.83;;
2257;SDS011;1136;51.574;7.706;2023-04-29T09:35:25;44.10;;;33.23;;
2257;SDS011;1136;51.574;7.706;2023-04-29T09:37:53;39.20;;;31.93;;
2257;SDS011;1136;51.574;7.706;2023-04-29T09:40:34;35.60;;;29.53;;
2257;SDS011;1136;51.574;7.706;2023-04-29T09:43:21;34.33;;;30.30;;
2257;SDS011;1136;51.574;7.706;2023-04-29T09:45:49;33.53;;;28.87;;
2257;SDS011;1136;51.574;7.706;2023-04-29T09:48:17;32.00;;;27.67;;
2257;SDS011;1136;51.574;7.706;2023-04-29T09:50:43;31.53;;;27.23;;
2257;SDS011;1136;51.574;7.706;2023-04-29T09:53:28;32.93;;;28.93;;
2257;SDS011;1136;51.574;7.706;2023-04-29T09:55:57;34.90;;;28.87;;
2257;SDS011;1136;51.574;7.706;2023-04-29T09:58:28;36.80;;;30.10;;
2257;SDS011;1136;51.574;7.706;2023-04-29T10:00:57;35.60;;;28.60;;
2257;SDS011;1136;51.574;7.706;2023-04-29T10:03:28;32.10;;;28.07;;
2257;SDS011;1136;51.574;7.706;2023-04-29T10:06:00;32.63;;;27.13;;
2257;SDS011;1136;51.574;7.706;2023-04-29T10:08:28;32.13;;;27.87;;
2257;SDS011;1136;51.574;7.706;2023-04-29T10:10:59;36.00;;;28.90;;
2257;SDS011;1136;51.574;7.706;2023-04-29T10:13:27;31.43;;;26.47;;
2257;SDS011;1136;51.574;7.706;2023-04-29T10:15:57;31.40;;;28.10;;
2257;SDS011;1136;51.574;7.706;2023-04-29T10:18:36;30.33;;;26.33;;
2257;SDS011;1136;51.574;7.706;2023-04-29T10:21:07;30.13;;;26.93;;
2257;SDS011;1136;51.574;7.706;2023-04-29T10:23:37;29.90;;;26.47;;
2257;SDS011;1136;51.574;7.706;2023-04-29T10:26:04;28.03;;;25.13;;
2257;SDS011;1136;51.574;7.706;2023-04-29T10:28:32;29.50;;;26.40;;
2257;SDS011;1136;51.574;7.706;2023-04-29T10:31:02;30.20;;;26.00;;
2257;SDS011;1136;51.574;7.706;2023-04-29T10:33:30;28.70;;;25.70;;
2257;SDS011;1136;51.574;7.706;2023-04-29T10:36:00;27.03;;;24.27;;
2257;SDS011;1136;51.574;7.706;2023-04-29T10:38:30;27.37;;;23.23;;
2257;SDS011;1136;51.574;7.706;2023-04-29T10:41:01;27.93;;;22.93;;
2257;SDS011;1136;51.574;7.706;2023-04-29T10:43:29;26.90;;;24.00;;
2257;SDS011;1136;51.574;7.706;2023-04-29T10:46:16;24.53;;;22.20;;
2257;SDS011;1136;51.574;7.706;2023-04-29T10:48:56;25.17;;;22.43;;
2257;SDS011;1136;51.574;7.706;2023-04-29T10:51:29;25.10;;;22.60;;
2257;SDS011;1136;51.574;7.706;2023-04-29T10:53:59;25.07;;;22.33;;
2257;SDS011;1136;51.574;7.706;2023-04-29T10:56:34;25.73;;;23.00;;
2257;SDS011;1136;51.574;7.706;2023-04-29T10:59:03;23.33;;;20.83;;
2257;SDS011;1136;51.574;7.706;2023-04-29T11:01:50;22.17;;;19.97;;
2257;SDS011;1136;51.574;7.706;2023-04-29T11:04:20;22.37;;;19.60;;
2257;SDS011;1136;51.574;7.706;2023-04-29T11:06:51;23.10;;;20.77;;
2257;SDS011;1136;51.574;7.706;2023-04-29T11:09:24;24.20;;;21.80;;
2257;SDS011;1136;51.574;7.706;2023-04-29T11:11:56;23.90;;;21.50;;
2257;SDS011;1136;51.574;7.706;2023-04-29T11:14:24;24.93;;;22.53;;
2257;SDS011;1136;51.574;7.706;2023-04-29T11:16:54;26.37;;;23.67;;
2257;SDS011;1136;51.574;7.706;2023-04-29T11:19:24;24.20;;;21.60;;
2257;SDS011;1136;51.574;7.706;2023-04-29T11:22:40;23.93;;;21.37;;
2257;SDS011;1136;51.574;7.706;2023-04-29T11:24:51;21.33;;;19.37;;
2257;SDS011;1136;51.574;7.706;2023-04-29T11:27:34;24.17;;;21.60;;
2257;SDS011;1136;51.574;7.706;2023-04-29T11:30:05;24.30;;;21.80;;
2257;SDS011;1136;51.574;7.706;2023-04-29T11:32:33;23.07;;;20.67;;
2257;SDS011;1136;51.574;7.706;2023-04-29T11:37:35;22.57;;;19.40;;
2257;SDS011;1136;51.574;7.706;2023-04-29T11:40:03;22.00;;;19.80;;
2257;SDS011;1136;51.574;7.706;2023-04-29T11:42:32;19.23;;;17.30;;
2257;SDS011;1136;51.574;7.706;2023-04-29T11:45:01;22.00;;;19.73;;
2257;SDS011;1136;51.574;7.706;2023-04-29T11:47:28;20.93;;;18.93;;
2257;SDS011;1136;51.574;7.706;2023-04-29T11:50:02;20.30;;;18.20;;
2257;SDS011;1136;51.574;7.706;2023-04-29T11:52:30;19.47;;;17.77;;
2257;SDS011;1136;51.574;7.706;2023-04-29T11:54:57;19.50;;;17.73;;
2257;SDS011;1136;51.574;7.706;2023-04-29T11:57:25;20.83;;;18.73;;
2257;SDS011;1136;51.574;7.706;2023-04-29T11:59:52;21.27;;;19.03;;
2257;SDS011;1136;51.574;7.706;2023-04-29T12:02:22;21.53;;;19.43;;
2257;SDS011;1136;51.574;7.706;2023-04-29T12:04:49;21.27;;;19.30;;
2257;SDS011;1136;51.574;7.706;2023-04-29T12:07:17;20.60;;;18.40;;
2257;SDS011;1136;51.574;7.706;2023-04-29T12:09:44;20.90;;;18.87;;
2257;SDS011;1136;51.574;7.706;2023-04-29T12:12:14;22.13;;;19.60;;
2257;SDS011;1136;51.574;7.706;2023-04-29T12:14:41;20.80;;;18.60;;
2257;SDS011;1136;51.574;7.706;2023-04-29T12:17:08;22.67;;;20.07;;
2257;SDS011;1136;51.574;7.706;2023-04-29T12:19:36;19.93;;;17.93;;
2257;SDS011;1136;51.574;7.706;2023-04-29T12:22:04;22.63;;;18.70;;
2257;SDS011;1136;51.574;7.706;2023-04-29T12:24:37;20.20;;;18.20;;
2257;SDS011;1136;51.574;7.706;2023-04-29T12:27:08;19.27;;;17.27;;
2257;SDS011;1136;51.574;7.706;2023-04-29T12:29:35;22.33;;;18.13;;
2257;SDS011;1136;51.574;7.706;2023-04-29T12:32:02;18.70;;;16.97;;
2257;SDS011;1136;51.574;7.706;2023-04-29T12:34:30;20.73;;;18.73;;
2257;SDS011;1136;51.574;7.706;2023-04-29T12:36:57;20.93;;;18.80;;
2257;SDS011;1136;51.574;7.706;2023-04-29T12:39:25;23.60;;;21.43;;
2257;SDS011;1136;51.574;7.706;2023-04-29T12:41:59;21.17;;;18.97;;
2257;SDS011;1136;51.574;7.706;2023-04-29T12:44:33;20.97;;;18.80;;
2257;SDS011;1136;51.574;7.706;2023-04-29T12:47:06;21.73;;;19.80;;
2257;SDS011;1136;51.574;7.706;2023-04-29T12:49:34;19.80;;;17.90;;
2257;SDS011;1136;51.574;7.706;2023-04-29T12:52:02;21.87;;;19.87;;
2257;SDS011;1136;51.574;7.706;2023-04-29T12:54:29;21.60;;;18.70;;
2257;SDS011;1136;51.574;7.706;2023-04-29T12:56:56;21.00;;;18.90;;
2257;SDS011;1136;51.574;7.706;2023-04-29T12:59:22;21.60;;;19.50;;
2257;SDS011;1136;51.574;7.706;2023-04-29T13:01:49;21.23;;;19.03;;
2257;SDS011;1136;51.574;7.706;2023-04-29T13:04:16;21.13;;;19.13;;
2257;SDS011;1136;51.574;7.706;2023-04-29T13:06:43;20.00;;;18.23;;
2257;SDS011;1136;51.574;7.706;2023-04-29T13:09:10;21.60;;;19.50;;
2257;SDS011;1136;51.574;7.706;2023-04-29T13:11:43;20.70;;;18.53;;
2257;SDS011;1136;51.574;7.706;2023-04-29T13:14:10;22.60;;;20.20;;
2257;SDS011;1136;51.574;7.706;2023-04-29T13:16:37;19.73;;;17.80;;
2257;SDS011;1136;51.574;7.706;2023-04-29T13:19:04;22.67;;;20.47;;
2257;SDS011;1136;51.574;7.706;2023-04-29T13:21:51;22.17;;;20.07;;
2257;SDS011;1136;51.574;7.706;2023-04-29T13:24:18;21.20;;;19.20;;
2257;SDS011;1136;51.574;7.706;2023-04-29T13:26:46;22.33;;;20.13;;
2257;SDS011;1136;51.574;7.706;2023-04-29T13:29:17;22.77;;;20.47;;
2257;SDS011;1136;51.574;7.706;2023-04-29T13:31:44;21.60;;;19.53;;
2257;SDS011;1136;51.574;7.706;2023-04-29T13:34:12;21.83;;;19.70;;
2257;SDS011;1136;51.574;7.706;2023-04-29T13:36:39;21.23;;;19.00;;
2257;SDS011;1136;51.574;7.706;2023-04-29T13:39:06;20.20;;;17.63;;
2257;SDS011;1136;51.574;7.706;2023-04-29T13:41:33;21.87;;;19.47;;
2257;SDS011;1136;51.574;7.706;2023-04-29T13:44:01;21.93;;;19.43;;
2257;SDS011;1136;51.574;7.706;2023-04-29T13:46:29;19.90;;;17.90;;
2257;SDS011;1136;51.574;7.706;2023-04-29T13:48:57;21.90;;;19.73;;
2257;SDS011;1136;51.574;7.706;2023-04-29T13:51:27;20.40;;;18.40;;
2257;SDS011;1136;51.574;7.706;2023-04-29T13:53:57;22.53;;;20.40;;
2257;SDS011;1136;51.574;7.706;2023-04-29T13:56:43;23.60;;;21.40;;
2257;SDS011;1136;51.574;7.706;2023-04-29T13:59:13;24.50;;;20.90;;
2257;SDS011;1136;51.574;7.706;2023-04-29T14:02:00;20.20;;;18.20;;
2257;SDS011;1136;51.574;7.706;2023-04-29T14:04:29;19.30;;;17.50;;
2257;SDS011;1136;51.574;7.706;2023-04-29T14:06:56;20.40;;;18.50;;
2257;SDS011;1136;51.574;7.706;2023-04-29T14:09:23;21.03;;;18.83;;
2257;SDS011;1136;51.574;7.706;2023-04-29T14:11:50;21.37;;;19.37;;
2257;SDS011;1136;51.574;7.706;2023-04-29T14:14:17;21.83;;;19.33;;
2257;SDS011;1136;51.574;7.706;2023-04-29T14:16:43;20.37;;;18.43;;
2257;SDS011;1136;51.574;7.706;2023-04-29T14:19:10;20.87;;;18.87;;
2257;SDS011;1136;51.574;7.706;2023-04-29T14:21:37;21.30;;;19.27;;
2257;SDS011;1136;51.574;7.706;2023-04-29T14:24:04;20.50;;;18.63;;
2257;SDS011;1136;51.574;7.706;2023-04-29T14:26:31;19.33;;;17.43;;
2257;SDS011;1136;51.574;7.706;2023-04-29T14:28:57;20.10;;;18.10;;
2257;SDS011;1136;51.574;7.706;2023-04-29T14:31:29;21.67;;;19.67;;
2257;SDS011;1136;51.574;7.706;2023-04-29T14:33:57;21.53;;;19.23;;
2257;SDS011;1136;51.574;7.706;2023-04-29T14:36:24;21.07;;;19.13;;
2257;SDS011;1136;51.574;7.706;2023-04-29T14:38:51;19.23;;;17.40;;
2257;SDS011;1136;51.574;7.706;2023-04-29T14:41:18;19.83;;;17.77;;
2257;SDS011;1136;51.574;7.706;2023-04-29T14:43:46;20.40;;;18.40;;
2257;SDS011;1136;51.574;7.706;2023-04-29T14:46:13;20.93;;;19.13;;
2257;SDS011;1136;51.574;7.706;2023-04-29T14:48:40;20.10;;;18.10;;
2257;SDS011;1136;51.574;7.706;2023-04-29T14:51:07;16.83;;;15.23;;
2257;SDS011;1136;51.574;7.706;2023-04-29T14:53:35;18.33;;;16.50;;
2257;SDS011;1136;51.574;7.706;2023-04-29T14:56:01;17.50;;;15.90;;
2257;SDS011;1136;51.574;7.706;2023-04-29T14:58:29;17.53;;;14.20;;
2257;SDS011;1136;51.574;7.706;2023-04-29T15:00:56;16.97;;;14.87;;
2257;SDS011;1136;51.574;7.706;2023-04-29T15:03:23;16.03;;;14.33;;
2257;SDS011;1136;51.574;7.706;2023-04-29T15:05:50;15.90;;;14.40;;
2257;SDS011;1136;51.574;7.706;2023-04-29T15:08:17;16.00;;;14.50;;
2257;SDS011;1136;51.574;7.706;2023-04-29T15:10:45;15.80;;;14.20;;
2257;SDS011;1136;51.574;7.706;2023-04-29T15:13:13;14.93;;;13.53;;
2257;SDS011;1136;51.574;7.706;2023-04-29T15:15:40;14.77;;;13.37;;
2257;SDS011;1136;51.574;7.706;2023-04-29T15:18:07;14.37;;;13.07;;
2257;SDS011;1136;51.574;7.706;2023-04-29T15:20:35;16.90;;;12.23;;
2257;SDS011;1136;51.574;7.706;2023-04-29T15:23:02;14.43;;;13.00;;